createdAt,value
2023-04-13T00:00:15.250Z,98987.17
2023-04-13T00:34:06.121Z,98947.98
2023-04-13T00:37:38.782Z,98945.29
2023-04-13T01:01:40.110Z,98942.28
2023-04-13T01:05:21.928Z,98943.69
2023-04-13T01:36:55.849Z,98985.97
2023-04-13T01:40:37.348Z,98986.40
2023-04-13T01:44:09.468Z,98984.08
2023-04-13T01:47:42.294Z,98986.09
2023-04-13T01:51:14.778Z,98981.70
2023-04-13T02:21:05.016Z,98960.70
2023-04-13T02:24:38.275Z,98960.92
2023-04-13T02:45:10.729Z,98959.89
2023-04-13T02:48:44.659Z,98960.89
2023-04-13T02:52:23.392Z,98957.00
2023-04-13T03:12:05.622Z,98988.80
2023-04-13T03:15:35.819Z,98996.48
2023-04-13T03:38:15.447Z,98988.17
2023-04-13T03:42:03.725Z,98984.30
2023-04-13T03:45:32.416Z,98988.04
2023-04-13T04:05:08.931Z,98995.21
2023-04-13T04:08:38.216Z,99004.04
2023-04-13T05:01:26.104Z,99006.98
2023-04-13T05:04:55.183Z,99008.50
2023-04-13T05:12:16.425Z,99012.48
2023-04-13T05:20:06.922Z,99019.98
2023-04-13T05:23:34.493Z,99019.57
2023-04-13T05:27:09.978Z,99016.33
2023-04-13T05:30:40.894Z,99009.40
2023-04-13T05:34:14.405Z,99010.45
2023-04-13T05:52:08.103Z,99016.43
2023-04-13T05:55:54.152Z,99010.60
2023-04-13T06:11:11.604Z,99021.73
2023-04-13T06:14:44.516Z,99033.07
2023-04-13T06:18:18.381Z,99039.25
2023-04-13T06:21:48.163Z,99047.55
2023-04-13T06:25:24.928Z,99049.40
2023-04-13T06:28:59.498Z,99057.05
2023-04-13T06:36:48.781Z,99061.19
2023-04-13T06:52:37.525Z,99058.50
2023-04-13T06:56:19.929Z,99061.48
2023-04-13T07:00:12.518Z,99066.81
2023-04-13T07:07:21.837Z,99068.90
2023-04-13T07:18:05.492Z,99086.02
2023-04-13T07:21:33.256Z,99089.08
2023-04-13T07:25:21.254Z,99093.40
2023-04-13T07:53:40.088Z,99140.84
2023-04-13T07:57:24.178Z,99134.71
2023-04-13T08:00:56.735Z,99132.88
2023-04-13T08:16:47.560Z,99140.86
2023-04-13T08:20:26.783Z,99150.95
2023-04-13T08:24:14.273Z,99155.69
2023-04-13T08:44:20.649Z,99168.33
2023-04-13T08:47:56.888Z,99171.68
2023-04-13T08:51:28.280Z,99155.80
2023-04-13T08:54:59.392Z,99152.96
2023-04-13T08:58:35.721Z,99154.27
2023-04-13T09:27:54.010Z,99149.23
2023-04-13T09:31:24.430Z,99152.27
2023-04-13T09:38:41.569Z,99159.23
2023-04-13T09:50:47.154Z,99172.81
2023-04-13T10:01:57.294Z,99168.47
2023-04-13T10:05:29.245Z,99169.09
2023-04-13T10:24:38.400Z,99169.50
2023-04-13T10:28:15.684Z,99171.98
2023-04-13T10:35:53.655Z,99171.02
2023-04-13T10:39:24.793Z,99171.95
2023-04-13T10:43:02.160Z,99164.20
2023-04-13T10:46:32.105Z,99165.48
2023-04-13T11:11:55.852Z,99160.37
2023-04-13T11:38:13.446Z,99165.23
2023-04-13T11:41:48.884Z,99174.20
2023-04-13T11:44:38.567Z,99175.54
2023-04-13T11:48:09.769Z,99165.11
2023-04-13T11:51:57.372Z,99168.06
2023-04-13T11:55:27.939Z,99173.21
2023-04-13T11:59:04.940Z,99172.69
2023-04-13T12:03:00.309Z,99178.73
2023-04-13T12:06:34.037Z,99180.06
2023-04-13T12:48:53.095Z,99190.61
2023-04-13T12:53:11.110Z,99183.66
2023-04-13T12:56:51.405Z,99195.42
2023-04-13T13:07:32.770Z,99204.52
2023-04-13T13:11:07.664Z,99199.23
2023-04-13T13:14:38.919Z,99203.40
2023-04-13T13:18:09.205Z,99199.05
2023-04-13T13:21:31.296Z,99193.19
2023-04-13T13:25:00.971Z,99193.16
2023-04-13T13:28:31.720Z,99192.55
2023-04-13T13:32:02.418Z,99194.93
2023-04-13T13:35:33.708Z,99196.10
2023-04-13T13:39:04.832Z,99205.83
2023-04-13T13:42:48.246Z,99209.50
2023-04-13T13:46:30.020Z,99227.61
2023-04-13T13:50:02.007Z,99229.83
2023-04-13T13:57:00.068Z,99234.94
2023-04-13T14:00:34.891Z,99242.13
2023-04-13T14:04:09.020Z,99245.32
2023-04-13T14:33:27.892Z,99268.82
2023-04-13T14:41:10.210Z,99272.35
2023-04-13T15:04:08.423Z,99318.41
2023-04-13T15:07:39.380Z,99322.77
2023-04-13T15:11:11.796Z,99328.74
2023-04-13T15:14:14.748Z,99334.86
2023-04-13T15:17:32.480Z,99329.25
2023-04-13T15:24:06.098Z,99333.98
2023-04-13T15:28:42.232Z,99333.91
2023-04-13T15:32:47.803Z,99334.00
2023-04-13T15:36:26.919Z,99334.91
2023-04-13T15:39:53.349Z,99331.25
2023-04-13T15:43:27.911Z,99326.82
2023-04-13T15:47:35.784Z,99324.77
2023-04-13T15:59:11.761Z,99340.39
2023-04-13T16:02:46.087Z,99336.52
2023-04-13T16:06:03.850Z,99332.75
2023-04-13T16:10:09.129Z,99333.83
2023-04-13T16:13:48.020Z,99338.19
2023-04-13T16:17:29.041Z,99345.80
2023-04-13T16:24:52.639Z,99345.54
2023-04-13T16:47:35.336Z,99362.14
2023-04-13T17:05:54.783Z,99363.52
2023-04-13T17:09:25.349Z,99361.46
2023-04-13T17:13:12.910Z,99365.40
2023-04-13T17:16:28.903Z,99366.33
2023-04-13T17:20:21.158Z,99368.48
2023-04-13T17:23:50.480Z,99371.80
2023-04-13T17:27:39.709Z,99373.09
2023-04-13T17:31:15.722Z,99373.15
2023-04-13T17:57:39.386Z,99392.58
2023-04-13T18:01:29.178Z,99395.77
2023-04-13T18:05:22.632Z,99403.99
2023-04-13T18:32:38.252Z,99437.30
2023-04-13T18:52:09.905Z,99455.92
2023-04-13T18:55:28.539Z,99456.44
2023-04-13T18:59:30.744Z,99453.92
2023-04-13T19:03:13.453Z,99455.33
2023-04-13T19:07:09.004Z,99455.92
2023-04-13T19:10:39.965Z,99454.77
2023-04-13T19:18:36.065Z,99459.23
2023-04-13T19:26:00.487Z,99473.36
2023-04-13T19:29:33.885Z,99468.78
2023-04-13T19:33:18.252Z,99472.51
2023-04-13T19:36:57.768Z,99470.63
2023-04-13T19:40:31.440Z,99473.36
2023-04-13T20:33:25.542Z,99489.34
2023-04-13T20:36:59.914Z,99495.52
2023-04-13T20:40:53.432Z,99500.20
2023-04-13T20:44:25.986Z,99501.87
2023-04-13T20:55:43.146Z,99506.30
2023-04-13T20:59:23.829Z,99505.51
2023-04-13T21:03:06.157Z,99505.34
2023-04-13T21:14:22.266Z,99503.47
2023-04-13T21:17:59.425Z,99500.08
2023-04-13T21:21:40.131Z,99497.38
2023-04-13T21:45:07.719Z,99484.38
2023-04-13T21:48:30.679Z,99485.33
2023-04-13T22:10:44.015Z,99473.66
2023-04-13T22:14:17.574Z,99470.80
2023-04-13T22:17:24.513Z,99469.80
2023-04-13T22:20:53.739Z,99468.89
2023-04-13T22:24:34.938Z,99465.97
2023-04-13T22:28:14.375Z,99468.30
2023-04-13T22:31:46.541Z,99466.48
2023-04-13T22:35:25.410Z,99467.80
2023-04-13T22:38:57.410Z,99463.85
2023-04-13T23:15:01.708Z,99453.08
2023-04-13T23:18:33.746Z,99453.70
2023-04-13T23:22:02.533Z,99457.49
2023-04-13T23:25:31.059Z,99453.33
2023-04-13T23:29:00.864Z,99450.84
2023-04-13T23:32:33.247Z,99444.63
2023-04-13T23:36:04.807Z,99440.44
2023-04-13T23:43:33.138Z,99436.35
2023-04-13T23:47:20.107Z,99430.73
2023-04-13T23:51:01.320Z,99427.54
2023-04-13T23:54:49.665Z,99426.72
